Leon, New York
Current Conditions -  °F | °C
As of 8:55 PM on Friday 21 Nov 2014 (Local Time) from KJHW Reporting Station
Clear Clear  
Wind Chill:   Ceiling: Unl
Heat Index: 14°   Visibility: 10mi
Dew Point:   Wind: 6mph
Humidity: 79%   Direction: 200°SSW
Pressure: 30.36"   Gusts: NA
Location:  42.29°N, 79.02°W
Report Text: KJHW 220155Z AUTO 20005KT 10SM CLR M10/M13 A3036 RMK AO1
Loading
Personal Weather Stations






























Interactive Weather Map New forecast layout! Learn more

10-Day Weather Forecast

Advertisements
Track Severe Weather on mobile